createdAt,value
2023-04-27T00:01:55.038Z,98220.81
2023-04-27T00:04:22.263Z,98226.31
2023-04-27T00:06:49.355Z,98225.66
2023-04-27T00:09:16.506Z,98216.91
2023-04-27T00:11:43.563Z,98220.50
2023-04-27T00:14:10.509Z,98220.25
2023-04-27T00:16:37.452Z,98214.34
2023-04-27T00:19:04.546Z,98233.00
2023-04-27T00:21:32.221Z,98227.25
2023-04-27T00:23:59.131Z,98219.91
2023-04-27T00:26:26.980Z,98221.84
2023-04-27T00:28:53.889Z,98217.81
2023-04-27T00:31:21.054Z,98221.75
2023-04-27T00:33:47.942Z,98216.53
2023-04-27T00:36:14.591Z,98207.75
2023-04-27T00:38:41.487Z,98210.13
2023-04-27T00:41:08.516Z,98211.63
2023-04-27T00:43:43.800Z,98208.75
2023-04-27T00:46:12.509Z,98207.41
2023-04-27T00:48:39.742Z,98209.75
2023-04-27T00:51:06.813Z,98208.84
2023-04-27T00:53:34.538Z,98214.69
2023-04-27T00:56:01.441Z,98210.97
2023-04-27T00:58:28.314Z,98216.22
2023-04-27T01:00:55.445Z,98214.56
2023-04-27T01:03:23.160Z,98212.97
2023-04-27T01:05:50.136Z,98215.47
2023-04-27T01:08:16.988Z,98210.87
2023-04-27T01:10:43.935Z,98209.66
2023-04-27T01:13:11.176Z,98213.19
2023-04-27T01:15:38.365Z,98209.75
2023-04-27T01:18:05.457Z,98216.00
2023-04-27T01:20:32.572Z,98219.44
2023-04-27T01:22:59.997Z,98230.25
2023-04-27T01:25:27.426Z,98226.56
2023-04-27T01:27:54.580Z,98230.97
2023-04-27T01:30:22.828Z,98237.31
2023-04-27T01:32:50.427Z,98231.56
2023-04-27T01:35:17.546Z,98234.97
2023-04-27T01:37:44.513Z,98229.41
2023-04-27T01:40:13.260Z,98239.91
2023-04-27T01:42:40.167Z,98234.66
2023-04-27T01:45:07.582Z,98242.94
2023-04-27T01:47:34.478Z,98241.88
2023-04-27T01:50:01.160Z,98243.22
2023-04-27T01:52:28.457Z,98248.75
2023-04-27T01:54:55.335Z,98249.34
2023-04-27T01:57:22.202Z,98243.34
2023-04-27T01:59:48.885Z,98236.84
2023-04-27T02:02:15.788Z,98234.78
2023-04-27T02:04:43.651Z,98244.12
2023-04-27T02:07:11.121Z,98236.34
2023-04-27T02:09:38.275Z,98241.13
2023-04-27T02:12:05.420Z,98232.16
2023-04-27T02:14:32.312Z,98235.72
2023-04-27T02:16:59.206Z,98242.16
2023-04-27T02:19:26.349Z,98240.37
2023-04-27T02:21:53.355Z,98236.53
2023-04-27T02:24:20.261Z,98245.38
2023-04-27T02:26:46.918Z,98239.59
2023-04-27T02:29:14.019Z,98242.94
2023-04-27T02:31:41.584Z,98245.56
2023-04-27T02:34:08.499Z,98233.44
2023-04-27T02:36:35.191Z,98238.19
2023-04-27T02:39:02.113Z,98241.37
2023-04-27T02:41:32.384Z,98247.78
2023-04-27T02:43:59.261Z,98255.03
2023-04-27T02:46:27.313Z,98254.22
2023-04-27T02:48:54.530Z,98255.56
2023-04-27T02:51:21.418Z,98257.31
2023-04-27T02:53:48.406Z,98256.72
2023-04-27T02:56:15.248Z,98250.59
2023-04-27T02:58:41.913Z,98245.97
2023-04-27T03:01:09.872Z,98241.63
2023-04-27T03:03:37.094Z,98243.69
2023-04-27T03:06:04.340Z,98241.41
2023-04-27T03:08:31.247Z,98245.50
2023-04-27T03:10:58.102Z,98251.50
2023-04-27T03:13:24.780Z,98253.25
2023-04-27T03:15:51.646Z,98244.09
2023-04-27T03:18:18.302Z,98255.97
2023-04-27T03:20:45.171Z,98265.69
2023-04-27T03:23:12.264Z,98262.59
2023-04-27T03:25:39.164Z,98256.47
2023-04-27T03:28:06.855Z,98267.53
2023-04-27T03:30:33.731Z,98265.22
2023-04-27T03:33:00.492Z,98268.91
2023-04-27T03:35:27.710Z,98274.22
2023-04-27T03:37:54.675Z,98283.34
2023-04-27T03:40:21.769Z,98281.06
2023-04-27T03:42:48.616Z,98274.47
2023-04-27T03:45:16.746Z,98279.28
2023-04-27T03:47:43.683Z,98281.72
2023-04-27T03:50:10.679Z,98290.31
2023-04-27T03:52:37.611Z,98282.28
2023-04-27T03:55:05.561Z,98290.00
2023-04-27T03:57:32.444Z,98292.06
2023-04-27T03:59:59.163Z,98288.44
2023-04-27T04:02:26.144Z,98304.06
2023-04-27T04:04:53.168Z,98302.91
2023-04-27T04:07:20.959Z,98304.19
2023-04-27T04:09:47.878Z,98303.13
2023-04-27T04:12:14.716Z,98293.66
2023-04-27T04:14:41.434Z,98297.25
2023-04-27T04:17:11.055Z,98286.00
2023-04-27T04:19:38.017Z,98279.66
2023-04-27T04:22:05.111Z,98281.47
2023-04-27T04:24:32.051Z,98278.22
2023-04-27T04:26:58.994Z,98285.37
2023-04-27T04:29:25.922Z,98278.03
2023-04-27T04:31:52.958Z,98285.03
2023-04-27T04:34:20.234Z,98294.44
2023-04-27T04:36:47.121Z,98300.34
2023-04-27T04:39:14.205Z,98307.47
2023-04-27T04:41:41.197Z,98318.50
2023-04-27T04:44:08.118Z,98323.25
2023-04-27T04:46:35.253Z,98324.19
2023-04-27T04:49:02.762Z,98326.59
2023-04-27T04:51:29.680Z,98326.94
2023-04-27T04:53:56.820Z,98328.03
2023-04-27T04:56:23.898Z,98332.75
2023-04-27T04:58:50.779Z,98333.50
2023-04-27T05:01:17.821Z,98334.59
2023-04-27T05:03:44.800Z,98334.31
2023-04-27T05:06:12.033Z,98338.56
2023-04-27T05:08:39.005Z,98334.41
2023-04-27T05:11:05.899Z,98336.75
2023-04-27T05:13:32.740Z,98342.28
2023-04-27T05:15:59.687Z,98337.00
2023-04-27T05:18:26.603Z,98340.94
2023-04-27T05:20:53.442Z,98347.47
2023-04-27T05:23:20.301Z,98343.69
2023-04-27T05:25:47.188Z,98343.69
2023-04-27T05:28:14.110Z,98350.66
2023-04-27T05:30:41.020Z,98347.00
2023-04-27T05:33:07.957Z,98354.63
2023-04-27T05:35:35.085Z,98358.81
2023-04-27T05:38:02.264Z,98361.72
2023-04-27T05:40:29.528Z,98359.25
2023-04-27T05:42:56.663Z,98365.62
2023-04-27T05:45:23.632Z,98364.00
2023-04-27T05:47:50.652Z,98368.75
2023-04-27T05:50:17.612Z,98360.72
2023-04-27T05:52:44.473Z,98360.69
2023-04-27T05:55:11.362Z,98365.94
2023-04-27T05:57:38.287Z,98354.87
2023-04-27T06:00:10.525Z,98364.84
2023-04-27T06:02:37.526Z,98361.84
2023-04-27T06:05:04.797Z,98360.28
2023-04-27T06:07:31.909Z,98362.72
2023-04-27T06:09:58.981Z,98363.50
2023-04-27T06:12:25.897Z,98375.03
2023-04-27T06:14:52.759Z,98369.69
2023-04-27T06:17:19.625Z,98372.22
2023-04-27T06:19:46.608Z,98375.28
2023-04-27T06:22:13.442Z,98378.22
2023-04-27T06:24:40.278Z,98375.06
2023-04-27T06:27:07.245Z,98378.88
2023-04-27T06:29:34.147Z,98375.56
2023-04-27T06:32:01.952Z,98371.28
2023-04-27T06:34:29.131Z,98375.56
2023-04-27T06:36:56.180Z,98384.78
2023-04-27T06:39:23.172Z,98379.50
2023-04-27T06:41:50.054Z,98378.56
2023-04-27T06:44:16.957Z,98384.59
2023-04-27T06:46:43.856Z,98389.75
2023-04-27T06:49:11.080Z,98389.59
2023-04-27T06:51:38.012Z,98389.75
2023-04-27T06:54:05.081Z,98387.63
2023-04-27T06:56:32.030Z,98379.59
2023-04-27T06:58:59.974Z,98385.09
2023-04-27T07:01:26.882Z,98386.72
2023-04-27T07:03:53.980Z,98392.84
2023-04-27T07:06:22.384Z,98395.53
2023-04-27T07:08:49.269Z,98383.84
2023-04-27T07:11:16.648Z,98383.84
2023-04-27T07:13:43.902Z,98379.78
2023-04-27T07:16:10.879Z,98381.88
2023-04-27T07:18:37.772Z,98389.44
2023-04-27T07:21:04.677Z,98382.31
2023-04-27T07:23:32.075Z,98395.69
2023-04-27T07:25:59.386Z,98392.16
2023-04-27T07:28:26.305Z,98392.47
2023-04-27T07:30:53.211Z,98393.03
2023-04-27T07:33:20.104Z,98390.72
2023-04-27T07:35:47.008Z,98391.44
2023-04-27T07:38:13.887Z,98407.22
2023-04-27T07:40:42.100Z,98396.25
2023-04-27T07:43:10.418Z,98402.19
2023-04-27T07:45:39.499Z,98403.03
2023-04-27T07:48:06.688Z,98395.47
2023-04-27T07:50:33.699Z,98384.22
2023-04-27T07:53:00.575Z,98390.78
2023-04-27T07:55:27.616Z,98395.72
2023-04-27T07:57:55.327Z,98395.47
2023-04-27T08:00:23.178Z,98390.75
2023-04-27T08:02:51.013Z,98401.63
2023-04-27T08:05:18.408Z,98398.75
2023-04-27T08:07:46.076Z,98402.03
2023-04-27T08:10:13.381Z,98399.53
2023-04-27T08:12:40.306Z,98402.13
2023-04-27T08:15:07.875Z,98402.28
2023-04-27T08:17:35.271Z,98401.63
2023-04-27T08:20:02.227Z,98398.09
2023-04-27T08:22:29.156Z,98404.41
2023-04-27T08:24:56.036Z,98412.28
2023-04-27T08:27:22.891Z,98399.87
2023-04-27T08:29:49.804Z,98403.88
2023-04-27T08:32:16.859Z,98406.22
2023-04-27T08:34:45.103Z,98400.94
2023-04-27T08:37:12.078Z,98414.78
2023-04-27T08:39:39.051Z,98411.03
2023-04-27T08:42:12.763Z,98409.63
2023-04-27T08:44:44.016Z,98401.94
2023-04-27T08:47:11.388Z,98405.91
2023-04-27T08:49:44.475Z,98402.94
2023-04-27T08:52:14.633Z,98397.69
2023-04-27T08:54:41.743Z,98398.72
2023-04-27T08:57:13.150Z,98398.31
2023-04-27T08:59:45.448Z,98390.25
2023-04-27T09:02:21.827Z,98376.63
2023-04-27T09:04:48.943Z,98390.38
2023-04-27T09:07:17.634Z,98382.97
2023-04-27T09:09:45.673Z,98385.56
2023-04-27T09:12:22.065Z,98381.12
2023-04-27T09:14:58.254Z,98388.13
2023-04-27T09:17:28.016Z,98378.25
2023-04-27T09:20:13.586Z,98381.44
2023-04-27T09:22:45.774Z,98381.59
2023-04-27T09:25:30.219Z,98379.38
2023-04-27T09:27:58.506Z,98385.09
2023-04-27T09:30:26.581Z,98383.91
2023-04-27T09:32:58.060Z,98380.25
2023-04-27T09:35:30.085Z,98381.34
2023-04-27T09:37:57.001Z,98384.81
2023-04-27T09:40:30.844Z,98370.16
2023-04-27T09:43:01.301Z,98372.00
2023-04-27T09:45:28.398Z,98362.19
2023-04-27T09:47:55.410Z,98374.53
2023-04-27T09:50:22.342Z,98365.88
2023-04-27T09:52:49.383Z,98373.69
2023-04-27T09:55:27.803Z,98376.91
2023-04-27T09:58:28.634Z,98371.53
2023-04-27T10:01:20.332Z,98373.88
2023-04-27T10:04:06.146Z,98364.06
2023-04-27T10:07:01.930Z,98357.06
2023-04-27T10:09:36.134Z,98363.47
2023-04-27T10:12:19.665Z,98358.25
2023-04-27T10:14:51.512Z,98356.31
2023-04-27T10:17:19.027Z,98359.28
2023-04-27T10:20:18.142Z,98361.13
2023-04-27T10:22:46.712Z,98359.03
2023-04-27T10:25:19.847Z,98350.72
2023-04-27T10:27:57.024Z,98350.47
2023-04-27T10:30:24.545Z,98345.13
2023-04-27T10:32:55.191Z,98340.19
2023-04-27T10:35:23.459Z,98346.75
2023-04-27T10:37:52.201Z,98339.94
2023-04-27T10:40:19.342Z,98344.50
2023-04-27T10:42:49.630Z,98342.50
2023-04-27T10:45:30.210Z,98348.31
2023-04-27T10:48:00.606Z,98339.03
2023-04-27T10:50:28.058Z,98336.38
2023-04-27T10:52:54.954Z,98340.53
2023-04-27T10:55:23.253Z,98334.81
2023-04-27T10:57:54.293Z,98337.63
2023-04-27T11:00:26.907Z,98338.28
2023-04-27T11:02:55.213Z,98328.97
2023-04-27T11:05:25.388Z,98334.19
2023-04-27T11:07:53.121Z,98334.47
2023-04-27T11:10:20.524Z,98330.72
2023-04-27T11:12:47.537Z,98330.59
2023-04-27T11:15:14.487Z,98326.00
2023-04-27T11:17:41.893Z,98320.94
2023-04-27T11:20:09.891Z,98320.72
2023-04-27T11:22:46.504Z,98329.28
2023-04-27T11:25:13.394Z,98324.37
2023-04-27T11:27:42.011Z,98327.81
2023-04-27T11:30:23.212Z,98316.28
2023-04-27T11:32:50.978Z,98318.53
2023-04-27T11:35:21.286Z,98330.03
2023-04-27T11:37:58.432Z,98320.09
2023-04-27T11:40:25.190Z,98312.16
2023-04-27T11:43:04.340Z,98324.03
2023-04-27T11:45:31.294Z,98320.34
2023-04-27T11:47:59.238Z,98323.03
2023-04-27T11:50:26.855Z,98318.91
2023-04-27T11:52:53.753Z,98317.37
2023-04-27T11:55:22.263Z,98319.84
2023-04-27T11:57:49.357Z,98316.53
2023-04-27T12:00:16.780Z,98316.66
2023-04-27T12:02:44.414Z,98317.59
2023-04-27T12:05:13.454Z,98318.91
2023-04-27T12:07:41.437Z,98323.56
2023-04-27T12:10:09.187Z,98320.56
2023-04-27T12:12:36.402Z,98321.53
2023-04-27T12:15:03.750Z,98319.34
2023-04-27T12:17:30.669Z,98322.69
2023-04-27T12:19:57.601Z,98326.13
2023-04-27T12:22:24.512Z,98327.94
2023-04-27T12:24:51.709Z,98321.75
2023-04-27T12:27:18.581Z,98325.66
2023-04-27T12:29:45.573Z,98319.59
2023-04-27T12:32:12.510Z,98328.59
2023-04-27T12:34:39.685Z,98334.50
2023-04-27T12:37:07.204Z,98332.34
2023-04-27T12:39:34.483Z,98329.69
2023-04-27T12:42:02.454Z,98327.59
2023-04-27T12:44:29.660Z,98323.25
2023-04-27T12:46:56.885Z,98322.34
2023-04-27T12:49:23.767Z,98330.84
2023-04-27T12:51:52.148Z,98323.22
2023-04-27T12:54:19.076Z,98319.63
2023-04-27T12:56:46.051Z,98326.63
2023-04-27T12:59:14.001Z,98320.81
2023-04-27T13:01:40.938Z,98318.03
2023-04-27T13:04:08.147Z,98322.47
2023-04-27T13:06:35.260Z,98312.50
2023-04-27T13:09:08.888Z,98316.66
2023-04-27T13:11:35.835Z,98307.31
2023-04-27T13:14:02.717Z,98314.47
2023-04-27T13:16:29.643Z,98311.84
2023-04-27T13:18:56.736Z,98315.56
2023-04-27T13:21:23.679Z,98319.44
2023-04-27T13:23:51.341Z,98314.09
2023-04-27T13:26:18.272Z,98310.19
2023-04-27T13:28:45.136Z,98323.41
2023-04-27T13:31:12.072Z,98313.19
2023-04-27T13:33:43.711Z,98319.38
2023-04-27T13:36:12.197Z,98328.06
2023-04-27T13:38:39.489Z,98329.81
2023-04-27T13:41:06.904Z,98325.97
2023-04-27T13:43:33.911Z,98323.78
2023-04-27T13:46:02.623Z,98322.16
2023-04-27T13:48:30.603Z,98330.09
2023-04-27T13:50:58.034Z,98323.44
2023-04-27T13:53:28.131Z,98334.28
2023-04-27T13:55:56.116Z,98328.78
2023-04-27T13:58:25.792Z,98327.78
2023-04-27T14:00:53.812Z,98322.88
2023-04-27T14:03:21.727Z,98333.25
2023-04-27T14:05:50.945Z,98328.84
2023-04-27T14:08:18.298Z,98328.47
2023-04-27T14:10:46.059Z,98328.53
2023-04-27T14:13:13.258Z,98332.91
2023-04-27T14:15:40.604Z,98324.03
2023-04-27T14:18:08.745Z,98324.87
2023-04-27T14:20:36.504Z,98320.47
2023-04-27T14:23:05.255Z,98326.38
2023-04-27T14:25:35.428Z,98325.47
2023-04-27T14:28:10.825Z,98324.91
2023-04-27T14:30:37.702Z,98327.47
2023-04-27T14:33:07.104Z,98329.50
2023-04-27T14:35:34.972Z,98321.66
2023-04-27T14:38:33.888Z,98321.53
2023-04-27T14:41:01.938Z,98322.56
2023-04-27T14:43:28.876Z,98332.53
2023-04-27T14:46:04.848Z,98322.72
2023-04-27T14:48:54.439Z,98318.66
2023-04-27T14:51:21.690Z,98319.75
2023-04-27T14:53:48.617Z,98305.53
2023-04-27T14:56:15.610Z,98326.84
2023-04-27T14:58:42.474Z,98329.44
2023-04-27T15:01:09.421Z,98326.28
2023-04-27T15:03:36.520Z,98327.00
2023-04-27T15:06:03.704Z,98326.19
2023-04-27T15:08:32.076Z,98327.84
2023-04-27T15:11:01.394Z,98330.94
2023-04-27T15:13:28.370Z,98336.03
2023-04-27T15:15:56.664Z,98329.41
2023-04-27T15:18:25.873Z,98332.41
2023-04-27T15:20:56.671Z,98331.66
2023-04-27T15:23:24.782Z,98322.47
2023-04-27T15:25:55.540Z,98325.81
2023-04-27T15:28:33.961Z,98332.84
2023-04-27T15:31:00.871Z,98326.50
2023-04-27T15:33:27.747Z,98323.50
2023-04-27T15:35:55.057Z,98315.78
2023-04-27T15:38:28.219Z,98314.47
2023-04-27T15:40:55.067Z,98321.66
2023-04-27T15:43:22.079Z,98335.00
2023-04-27T15:45:49.542Z,98333.78
2023-04-27T15:48:16.663Z,98330.53
2023-04-27T15:50:45.110Z,98330.50
2023-04-27T15:53:12.191Z,98328.84
2023-04-27T15:55:39.081Z,98324.56
2023-04-27T15:58:06.056Z,98323.00
2023-04-27T16:00:33.017Z,98324.87
2023-04-27T16:03:00.656Z,98327.13
2023-04-27T16:05:27.759Z,98322.16
2023-04-27T16:07:55.612Z,98315.44
2023-04-27T16:10:22.460Z,98318.06
2023-04-27T16:12:49.328Z,98327.13
2023-04-27T16:15:16.334Z,98324.94
2023-04-27T16:17:43.196Z,98328.69
2023-04-27T16:20:10.255Z,98331.13
2023-04-27T16:22:37.774Z,98332.69
2023-04-27T16:25:10.534Z,98337.81
2023-04-27T16:27:38.554Z,98333.00
2023-04-27T16:30:08.246Z,98330.88
2023-04-27T16:32:35.646Z,98333.66
2023-04-27T16:35:03.803Z,98340.66
2023-04-27T16:37:30.767Z,98336.34
2023-04-27T16:40:01.519Z,98333.31
2023-04-27T16:42:28.778Z,98330.72
2023-04-27T16:44:55.901Z,98336.34
2023-04-27T16:47:22.976Z,98336.56
2023-04-27T16:49:51.413Z,98328.38
2023-04-27T16:52:18.856Z,98330.13
2023-04-27T16:54:46.105Z,98332.19
2023-04-27T16:57:13.429Z,98329.78
2023-04-27T16:59:48.327Z,98329.72
2023-04-27T17:02:24.558Z,98336.88
2023-04-27T17:04:53.151Z,98343.62
2023-04-27T17:07:20.188Z,98342.78
2023-04-27T17:09:53.267Z,98346.69
2023-04-27T17:12:20.179Z,98346.03
2023-04-27T17:14:47.038Z,98346.09
2023-04-27T17:17:13.926Z,98352.66
2023-04-27T17:19:42.145Z,98354.34
2023-04-27T17:22:11.453Z,98351.16
2023-04-27T17:24:38.285Z,98349.59
2023-04-27T17:27:05.195Z,98349.88
2023-04-27T17:29:33.047Z,98351.38
2023-04-27T17:31:59.907Z,98349.31
2023-04-27T17:34:26.790Z,98344.31
2023-04-27T17:36:53.727Z,98348.44
2023-04-27T17:39:22.763Z,98358.62
2023-04-27T17:41:49.688Z,98354.56
2023-04-27T17:44:16.805Z,98350.78
2023-04-27T17:46:48.053Z,98353.63
2023-04-27T17:49:16.422Z,98349.81
2023-04-27T17:51:44.286Z,98350.47
2023-04-27T17:54:11.757Z,98356.78
2023-04-27T17:56:39.447Z,98359.41
2023-04-27T17:59:07.820Z,98352.41
2023-04-27T18:01:34.892Z,98355.47
2023-04-27T18:04:04.225Z,98359.91
2023-04-27T18:06:32.177Z,98369.44
2023-04-27T18:08:59.080Z,98360.75
2023-04-27T18:11:26.032Z,98366.06
2023-04-27T18:13:54.672Z,98373.16
2023-04-27T18:16:21.796Z,98370.00
2023-04-27T18:18:48.690Z,98376.44
2023-04-27T18:21:15.556Z,98378.31
2023-04-27T18:23:42.836Z,98385.56
2023-04-27T18:26:11.539Z,98384.53
2023-04-27T18:28:40.291Z,98392.72
2023-04-27T18:31:17.710Z,98392.87
2023-04-27T18:33:47.617Z,98397.56
2023-04-27T18:36:14.583Z,98397.53
2023-04-27T18:38:41.493Z,98403.19
2023-04-27T18:41:08.497Z,98404.00
2023-04-27T18:43:37.788Z,98410.84
2023-04-27T18:46:05.051Z,98410.22
2023-04-27T18:48:32.626Z,98416.44
2023-04-27T18:50:59.585Z,98421.28
2023-04-27T18:53:27.474Z,98423.53
2023-04-27T18:55:54.380Z,98424.16
2023-04-27T18:58:21.675Z,98426.75
2023-04-27T19:00:48.638Z,98432.91
2023-04-27T19:03:15.868Z,98438.22
2023-04-27T19:05:43.195Z,98435.28
2023-04-27T19:08:10.440Z,98432.16
2023-04-27T19:10:38.399Z,98437.38
2023-04-27T19:13:05.259Z,98433.22
2023-04-27T19:15:32.127Z,98442.16
2023-04-27T19:18:06.914Z,98442.72
2023-04-27T19:20:37.439Z,98446.28
2023-04-27T19:23:05.386Z,98442.69
2023-04-27T19:25:32.334Z,98446.50
2023-04-27T19:27:59.277Z,98449.03
2023-04-27T19:30:26.285Z,98452.94
2023-04-27T19:32:53.287Z,98450.31
2023-04-27T19:35:20.602Z,98456.28
2023-04-27T19:37:47.519Z,98462.97
2023-04-27T19:40:15.091Z,98448.72
2023-04-27T19:42:41.958Z,98458.41
2023-04-27T19:45:08.973Z,98455.16
2023-04-27T19:47:36.146Z,98455.03
2023-04-27T19:50:04.952Z,98458.16
2023-04-27T19:52:31.841Z,98464.22
2023-04-27T19:55:00.070Z,98449.09
2023-04-27T19:57:26.942Z,98462.63
2023-04-27T19:59:53.831Z,98455.94
2023-04-27T20:02:21.691Z,98452.72
2023-04-27T20:04:48.986Z,98457.16
2023-04-27T20:07:16.128Z,98459.78
2023-04-27T20:09:43.066Z,98461.56
2023-04-27T20:12:23.718Z,98459.97
2023-04-27T20:14:56.329Z,98457.41
2023-04-27T20:17:25.792Z,98467.28
2023-04-27T20:19:56.613Z,98470.16
2023-04-27T20:22:24.071Z,98471.63
2023-04-27T20:24:51.229Z,98472.22
2023-04-27T20:27:18.229Z,98471.88
2023-04-27T20:29:47.274Z,98473.53
2023-04-27T20:32:14.157Z,98470.13
2023-04-27T20:34:41.075Z,98470.66
2023-04-27T20:37:08.000Z,98476.56
2023-04-27T20:39:35.211Z,98480.97
2023-04-27T20:42:02.198Z,98477.53
2023-04-27T20:44:29.079Z,98482.31
2023-04-27T20:46:56.180Z,98479.41
2023-04-27T20:49:32.014Z,98484.84
2023-04-27T20:52:02.328Z,98479.97
2023-04-27T20:54:32.898Z,98481.72
2023-04-27T20:57:03.876Z,98485.63
2023-04-27T20:59:30.741Z,98479.47
2023-04-27T21:01:57.719Z,98477.28
2023-04-27T21:04:24.660Z,98478.09
2023-04-27T21:06:51.597Z,98476.75
2023-04-27T21:09:18.300Z,98479.84
2023-04-27T21:11:45.178Z,98482.69
2023-04-27T21:14:12.052Z,98483.94
2023-04-27T21:16:38.944Z,98479.94
2023-04-27T21:19:05.882Z,98476.97
2023-04-27T21:21:32.755Z,98473.66
2023-04-27T21:24:07.371Z,98472.31
2023-04-27T21:26:46.277Z,98481.88
2023-04-27T21:29:13.184Z,98482.38
2023-04-27T21:31:40.176Z,98477.13
2023-04-27T21:34:07.099Z,98486.53
2023-04-27T21:36:34.093Z,98482.63
2023-04-27T21:39:01.109Z,98487.50
2023-04-27T21:41:27.964Z,98481.16
2023-04-27T21:43:54.845Z,98481.75
2023-04-27T21:46:23.418Z,98483.44
2023-04-27T21:48:50.342Z,98480.34
2023-04-27T21:51:17.264Z,98481.53
2023-04-27T21:53:44.093Z,98486.25
2023-04-27T21:56:10.876Z,98482.97
2023-04-27T21:58:37.871Z,98483.81
2023-04-27T22:01:04.801Z,98490.09
2023-04-27T22:03:32.807Z,98485.63
2023-04-27T22:05:59.833Z,98495.31
2023-04-27T22:08:26.748Z,98488.09
2023-04-27T22:10:53.683Z,98492.59
2023-04-27T22:13:20.622Z,98502.19
2023-04-27T22:15:48.421Z,98498.78
2023-04-27T22:18:15.792Z,98505.84
2023-04-27T22:20:43.050Z,98513.56
2023-04-27T22:23:10.220Z,98515.88
2023-04-27T22:25:37.146Z,98520.53
2023-04-27T22:28:04.154Z,98527.44
2023-04-27T22:30:31.296Z,98514.53
2023-04-27T22:32:58.320Z,98512.69
2023-04-27T22:35:27.545Z,98519.00
2023-04-27T22:37:58.171Z,98519.28
2023-04-27T22:40:25.214Z,98522.87
2023-04-27T22:42:53.586Z,98518.94
2023-04-27T22:45:20.512Z,98523.19
2023-04-27T22:47:47.508Z,98519.34
2023-04-27T22:50:14.518Z,98508.69
2023-04-27T22:52:44.691Z,98505.47
2023-04-27T22:55:12.871Z,98511.66
2023-04-27T22:57:40.446Z,98505.34
2023-04-27T23:00:14.042Z,98513.66
2023-04-27T23:02:41.760Z,98507.50
2023-04-27T23:05:10.963Z,98507.63
2023-04-27T23:07:38.521Z,98511.12
2023-04-27T23:10:06.191Z,98503.81
2023-04-27T23:12:33.712Z,98498.72
2023-04-27T23:15:00.736Z,98506.47
2023-04-27T23:17:31.170Z,98508.75
2023-04-27T23:19:59.609Z,98502.34
2023-04-27T23:22:27.253Z,98512.88
2023-04-27T23:24:54.640Z,98513.50
2023-04-27T23:27:22.666Z,98508.41
2023-04-27T23:29:49.532Z,98508.78
2023-04-27T23:32:16.209Z,98503.28
2023-04-27T23:34:43.113Z,98506.41
2023-04-27T23:37:10.028Z,98504.97
2023-04-27T23:39:36.861Z,98510.94
2023-04-27T23:42:03.574Z,98501.19
2023-04-27T23:44:30.572Z,98504.75
2023-04-27T23:46:57.621Z,98505.97
2023-04-27T23:49:24.581Z,98502.03
2023-04-27T23:51:52.800Z,98503.06
2023-04-27T23:54:19.755Z,98498.50
2023-04-27T23:56:47.334Z,98498.94
2023-04-27T23:59:15.170Z,98493.97
